Time;durP1;ratioP1;P1;durP2;ratioP2;P2;SDS_P1;SDS_P2;PMS_P1;PMS_P2;Temp;Humidity;BMP_temperature;BMP_pressure;BME280_temperature;BME280_humidity;BME280_pressure;Samples;Min_cycle;Max_cycle;Signal;HPM_P1;HPM_P2
2023/12/15 00:01:23;;;;;;;6.07;2.13;;;;;;;14.66;47.74;96405.97;5080632;28;20019;-26
2023/12/15 00:03:48;;;;;;;3.42;2.40;;;;;;;14.64;47.97;96408.41;5082333;28;20026;-26
2023/12/15 00:06:14;;;;;;;4.20;2.58;;;;;;;14.69;47.57;96409.78;5081334;28;20027;-26
2023/12/15 00:08:41;;;;;;;4.95;2.60;;;;;;;14.53;48.23;96420.97;5080839;28;20178;-28
2023/12/15 00:11:07;;;;;;;4.40;2.17;;;;;;;14.49;48.38;96432.03;5088416;28;20028;-26
2023/12/15 00:13:32;;;;;;;4.55;2.28;;;;;;;14.59;48.18;96430.81;5081289;28;20019;-26
2023/12/15 00:15:57;;;;;;;3.55;2.38;;;;;;;14.66;48.15;96433.28;5081291;28;20137;-26
2023/12/15 00:18:23;;;;;;;4.43;2.33;;;;;;;14.79;47.85;96432.38;5080846;28;20016;-26
2023/12/15 00:20:48;;;;;;;4.72;2.47;;;;;;;14.67;47.71;96429.34;5088204;28;20376;-26
2023/12/15 00:23:14;;;;;;;3.47;2.30;;;;;;;14.68;48.17;96424.63;5080592;28;20442;-26
2023/12/15 00:25:40;;;;;;;3.70;2.30;;;;;;;14.57;48.30;96430.53;5086377;28;20485;-26
2023/12/15 00:28:05;;;;;;;4.13;2.42;;;;;;;14.46;48.46;96430.22;5075385;28;20030;-26
2023/12/15 00:30:31;;;;;;;3.30;2.30;;;;;;;14.55;48.36;96432.19;5077424;28;20016;-26
2023/12/15 00:32:56;;;;;;;3.58;2.08;;;;;;;14.56;48.07;96431.75;5084013;28;20031;-26
2023/12/15 00:35:22;;;;;;;3.50;2.08;;;;;;;14.66;48.16;96432.53;5082467;28;20024;-26
2023/12/15 00:37:47;;;;;;;6.20;2.40;;;;;;;14.58;48.54;96439.50;5083944;28;20024;-25
2023/12/15 00:40:13;;;;;;;4.53;2.60;;;;;;;14.58;48.04;96434.78;5075145;28;20024;-26
2023/12/15 00:42:39;;;;;;;4.88;2.40;;;;;;;14.53;48.20;96443.56;5081295;28;20036;-26
2023/12/15 00:45:05;;;;;;;4.75;2.33;;;;;;;14.53;48.30;96446.28;5079311;28;20043;-25
2023/12/15 00:47:31;;;;;;;3.20;2.10;;;;;;;14.43;48.67;96435.81;5075581;28;20024;-26
2023/12/15 00:49:57;;;;;;;4.93;2.40;;;;;;;14.57;47.93;96433.28;5083289;28;20024;-25
2023/12/15 00:52:22;;;;;;;3.90;2.28;;;;;;;14.60;48.23;96435.06;5075941;28;20048;-26
2023/12/15 00:54:48;;;;;;;4.30;2.30;;;;;;;14.49;48.40;96440.22;5082705;28;20052;-26
2023/12/15 00:57:13;;;;;;;4.03;2.10;;;;;;;14.39;48.13;96452.28;5084090;28;20419;-26
2023/12/15 00:59:39;;;;;;;3.38;2.13;;;;;;;14.54;47.98;96436.91;5075184;28;20414;-26
2023/12/15 01:02:05;;;;;;;3.28;2.00;;;;;;;14.59;48.45;96449.94;5083564;28;20019;-26
2023/12/15 01:04:32;;;;;;;2.90;1.95;;;;;;;14.40;48.48;96459.28;5083752;28;20020;-25
2023/12/15 01:06:57;;;;;;;3.88;1.67;;;;;;;14.55;48.08;96452.06;5080375;28;20029;-27
2023/12/15 01:09:23;;;;;;;4.45;1.77;;;;;;;14.57;48.23;96457.06;5080409;28;20091;-26
2023/12/15 01:11:48;;;;;;;3.15;1.48;;;;;;;14.57;48.16;96463.28;5080880;28;20050;-26
2023/12/15 01:14:14;;;;;;;3.22;1.77;;;;;;;14.46;48.15;96473.13;5080392;28;20024;-26
2023/12/15 01:16:46;;;;;;;3.72;1.85;;;;;;;14.33;48.26;96468.50;5079611;28;20024;-26
2023/12/15 01:19:12;;;;;;;3.58;2.55;;;;;;;14.31;48.46;96478.34;5083473;28;20546;-26
2023/12/15 01:21:37;;;;;;;4.75;1.70;;;;;;;14.48;48.15;96482.34;5083488;28;20055;-26
2023/12/15 01:24:03;;;;;;;4.53;1.88;;;;;;;14.47;48.16;96480.81;5075023;28;20027;-26
2023/12/15 01:26:29;;;;;;;3.05;1.85;;;;;;;14.40;47.98;96478.41;5084185;28;20492;-26
2023/12/15 01:28:54;;;;;;;3.78;1.67;;;;;;;14.43;48.10;96485.69;5083360;28;20031;-26
2023/12/15 01:31:20;;;;;;;2.20;1.42;;;;;;;14.47;48.14;96496.44;5082271;28;20013;-26
2023/12/15 01:33:45;;;;;;;3.17;2.10;;;;;;;14.43;47.83;96488.41;5078155;28;20032;-26
2023/12/15 01:36:11;;;;;;;5.15;1.90;;;;;;;14.43;48.34;96501.28;5079556;28;20027;-26
2023/12/15 01:38:36;;;;;;;4.82;1.83;;;;;;;14.29;48.46;96497.13;5080563;28;20021;-26
2023/12/15 01:41:02;;;;;;;4.43;1.83;;;;;;;14.33;48.55;96503.22;5079724;28;20021;-26
2023/12/15 01:43:27;;;;;;;3.13;1.73;;;;;;;14.38;48.52;96508.06;5081331;28;20085;-26
2023/12/15 01:45:53;;;;;;;2.97;1.67;;;;;;;14.49;48.10;96515.84;5083349;28;20028;-26
2023/12/15 01:48:18;;;;;;;3.22;2.00;;;;;;;14.45;48.12;96516.00;5082611;28;20024;-26
2023/12/15 01:50:43;;;;;;;4.93;2.08;;;;;;;14.33;48.61;96528.53;5082435;28;20061;-26
2023/12/15 01:53:09;;;;;;;2.65;1.85;;;;;;;14.34;48.55;96526.56;5083703;28;20469;-26
2023/12/15 01:55:34;;;;;;;3.38;1.70;;;;;;;14.48;48.22;96526.00;5075857;28;20034;-26
2023/12/15 01:58:00;;;;;;;4.00;1.60;;;;;;;14.27;48.55;96515.91;5087001;28;20029;-26
2023/12/15 02:00:25;;;;;;;2.47;1.52;;;;;;;14.34;48.52;96532.75;5086778;28;20020;-26
2023/12/15 02:02:51;;;;;;;3.47;1.80;;;;;;;14.41;48.23;96525.53;5078267;28;20038;-26
2023/12/15 02:05:16;;;;;;;5.38;1.83;;;;;;;14.33;48.31;96539.44;5086816;28;20625;-26
2023/12/15 02:07:42;;;;;;;2.67;1.45;;;;;;;14.39;48.46;96536.88;5078791;28;20023;-26
2023/12/15 02:10:07;;;;;;;3.33;1.40;;;;;;;14.38;48.50;96535.34;5068557;28;20023;-26
2023/12/15 02:12:32;;;;;;;2.72;1.58;;;;;;;14.27;48.55;96533.03;5080427;28;20027;-26
2023/12/15 02:14:58;;;;;;;3.13;1.70;;;;;;;14.54;48.13;96540.59;5083348;28;20363;-27
2023/12/15 02:17:23;;;;;;;2.42;1.35;;;;;;;14.24;48.56;96547.56;5083081;28;20077;-26
2023/12/15 02:19:49;;;;;;;2.25;1.48;;;;;;;14.44;48.35;96539.06;5083069;28;20123;-26
2023/12/15 02:22:14;;;;;;;2.25;1.40;;;;;;;14.45;48.32;96543.31;5079330;28;20016;-26
2023/12/15 02:24:40;;;;;;;3.45;1.60;;;;;;;14.43;48.21;96542.22;5086185;28;20024;-26
2023/12/15 02:27:05;;;;;;;2.63;1.60;;;;;;;14.28;48.33;96542.72;5084885;28;20035;-29
2023/12/15 02:29:31;;;;;;;3.72;1.73;;;;;;;14.45;48.43;96548.75;5079326;28;20032;-26
2023/12/15 02:31:56;;;;;;;3.72;1.35;;;;;;;14.40;48.35;96549.31;5079357;28;20032;-26
2023/12/15 02:34:24;;;;;;;3.55;1.73;;;;;;;14.43;48.10;96556.63;5083322;28;20024;-26
2023/12/15 02:36:51;;;;;;;2.95;1.38;;;;;;;14.55;48.31;96561.22;5082929;28;20374;-26
2023/12/15 02:39:16;;;;;;;4.03;1.55;;;;;;;14.51;48.36;96568.03;5082911;28;20068;-26
2023/12/15 02:41:44;;;;;;;3.22;1.67;;;;;;;14.51;48.32;96568.03;5082623;28;20017;-26
2023/12/15 02:44:10;;;;;;;2.78;1.52;;;;;;;14.62;48.25;96574.59;5083017;28;20028;-26
2023/12/15 02:46:37;;;;;;;4.05;1.70;;;;;;;14.39;48.59;96588.72;5064718;28;20032;-26
2023/12/15 02:49:02;;;;;;;3.22;1.77;;;;;;;14.34;48.86;96586.56;5057906;28;20438;-26
2023/12/15 02:51:29;;;;;;;2.70;1.73;;;;;;;14.50;48.81;96593.78;5082901;28;20075;-26
2023/12/15 02:53:56;;;;;;;4.65;2.20;;;;;;;14.47;48.09;96579.06;5085676;28;20024;-26
2023/12/15 02:56:22;;;;;;;3.28;1.70;;;;;;;14.52;48.37;96580.47;5085498;28;20423;-26
2023/12/15 02:58:47;;;;;;;4.90;1.80;;;;;;;14.42;48.76;96579.66;5084524;28;20020;-26
2023/12/15 03:01:13;;;;;;;3.38;1.75;;;;;;;14.36;48.50;96586.88;5080613;28;20074;-26
2023/12/15 03:03:38;;;;;;;3.25;1.77;;;;;;;14.28;48.80;96586.38;5082670;28;20024;-26
2023/12/15 03:06:04;;;;;;;2.92;1.83;;;;;;;14.33;48.60;96587.78;5077917;28;20031;-26
2023/12/15 03:08:29;;;;;;;2.83;1.85;;;;;;;14.58;48.32;96595.06;5084889;28;20066;-26
2023/12/15 03:10:57;;;;;;;4.28;2.20;;;;;;;14.37;48.46;96602.03;5076645;28;20024;-26
2023/12/15 03:13:26;;;;;;;3.78;2.15;;;;;;;14.37;48.75;96591.88;5085190;28;20015;-26
2023/12/15 03:15:51;;;;;;;3.40;2.00;;;;;;;14.50;48.66;96589.09;5076616;28;20494;-26
2023/12/15 03:18:17;;;;;;;4.80;2.05;;;;;;;14.35;48.63;96593.53;5085813;28;20020;-26
2023/12/15 03:20:46;;;;;;;3.90;2.00;;;;;;;14.50;48.48;96585.59;5078769;28;20019;-26
2023/12/15 03:23:11;;;;;;;2.75;1.85;;;;;;;14.41;48.49;96583.59;5089452;28;20028;-26
2023/12/15 03:25:37;;;;;;;3.40;1.75;;;;;;;14.45;48.40;96586.19;5082195;28;20036;-26
2023/12/15 03:28:02;;;;;;;2.92;1.85;;;;;;;14.40;48.36;96586.78;5081852;28;20024;-26
2023/12/15 03:30:28;;;;;;;4.00;2.03;;;;;;;14.34;48.61;96579.13;5081643;28;20027;-26
2023/12/15 03:32:53;;;;;;;3.65;2.25;;;;;;;14.42;48.38;96576.16;5081972;28;20028;-26
2023/12/15 03:35:19;;;;;;;2.70;1.80;;;;;;;14.44;48.47;96590.13;5081609;28;20099;-25
2023/12/15 03:37:45;;;;;;;2.83;1.90;;;;;;;14.34;48.72;96576.41;5079423;28;20487;-26
2023/12/15 03:40:11;;;;;;;4.95;2.28;;;;;;;14.26;48.66;96588.78;5083880;28;20020;-26
2023/12/15 03:42:36;;;;;;;2.95;2.05;;;;;;;14.40;48.32;96586.78;5084168;28;20056;-26
2023/12/15 03:45:03;;;;;;;3.00;1.70;;;;;;;14.43;48.44;96600.28;5084405;28;20055;-26
2023/12/15 03:47:28;;;;;;;4.78;2.10;;;;;;;14.40;48.51;96603.91;5082694;28;20016;-25
2023/12/15 03:49:53;;;;;;;4.72;2.40;;;;;;;14.38;48.41;96609.00;5081506;28;20539;-26
2023/12/15 03:52:19;;;;;;;3.65;2.60;;;;;;;14.37;48.27;96615.66;5088783;28;20441;-26
2023/12/15 03:54:44;;;;;;;3.28;2.30;;;;;;;14.38;48.56;96617.97;5082883;28;20453;-26
2023/12/15 03:57:10;;;;;;;3.42;2.38;;;;;;;14.30;49.01;96616.72;5078891;28;20428;-26
2023/12/15 03:59:39;;;;;;;3.80;2.65;;;;;;;14.32;48.66;96611.56;5081099;28;20021;-25
2023/12/15 04:02:05;;;;;;;4.63;2.40;;;;;;;14.01;49.48;96622.41;5085220;28;20020;-26
2023/12/15 04:04:32;;;;;;;3.95;2.10;;;;;;;14.41;48.80;96624.53;5084658;28;20065;-26
2023/12/15 04:06:57;;;;;;;6.07;2.55;;;;;;;14.31;48.86;96625.66;5076111;28;20535;-26
2023/12/15 04:09:23;;;;;;;5.70;2.40;;;;;;;14.27;49.18;96625.78;5083973;28;20023;-26
2023/12/15 04:11:48;;;;;;;4.00;2.03;;;;;;;14.33;49.02;96624.00;5082740;28;20046;-26
2023/12/15 04:14:15;;;;;;;5.95;2.35;;;;;;;14.32;49.10;96627.19;5059011;28;20020;-26
2023/12/15 04:16:41;;;;;;;4.97;2.10;;;;;;;14.31;49.12;96620.19;5077532;28;20104;-26
2023/12/15 04:19:07;;;;;;;5.55;2.25;;;;;;;14.32;48.82;96622.47;5080196;28;20107;-26
2023/12/15 04:21:32;;;;;;;4.82;2.05;;;;;;;14.32;48.89;96613.53;5078548;28;20103;-26
2023/12/15 04:23:58;;;;;;;3.55;2.10;;;;;;;14.14;49.36;96616.91;5082548;28;20035;-26
2023/12/15 04:26:23;;;;;;;2.92;1.90;;;;;;;14.20;49.48;96611.66;5088438;28;20450;-27
2023/12/15 04:28:49;;;;;;;4.95;2.25;;;;;;;14.09;49.32;96624.91;5081258;28;20412;-26
2023/12/15 04:31:15;;;;;;;5.20;1.80;;;;;;;14.16;48.96;96616.47;5074388;28;20038;-26
2023/12/15 04:33:40;;;;;;;3.75;1.88;;;;;;;14.26;49.14;96623.50;5084075;28;20020;-26
2023/12/15 04:36:10;;;;;;;4.55;1.90;;;;;;;14.32;48.80;96636.13;5083427;28;20054;-26
2023/12/15 04:38:36;;;;;;;3.50;2.00;;;;;;;14.13;49.34;96636.44;5080557;28;20036;-26
2023/12/15 04:41:02;;;;;;;2.97;1.70;;;;;;;14.13;49.01;96650.06;5079927;28;20465;-26
2023/12/15 04:43:27;;;;;;;3.47;2.20;;;;;;;14.21;48.83;96643.19;5074988;28;20031;-26
2023/12/15 04:45:55;;;;;;;5.07;2.30;;;;;;;14.15;48.95;96661.31;5079697;28;20071;-26
2023/12/15 04:48:20;;;;;;;3.70;2.10;;;;;;;14.26;48.87;96656.22;5080144;28;20024;-26
2023/12/15 04:50:46;;;;;;;4.22;2.33;;;;;;;14.25;48.77;96651.97;5080840;28;20044;-26
2023/12/15 04:53:11;;;;;;;6.13;2.20;;;;;;;14.08;49.03;96656.13;5079529;28;20024;-25
2023/12/15 04:55:37;;;;;;;3.10;2.00;;;;;;;14.17;48.80;96670.56;5081800;28;20111;-26
2023/12/15 04:58:02;;;;;;;2.28;1.58;;;;;;;14.21;48.52;96654.09;5080488;28;20063;-26
2023/12/15 05:00:28;;;;;;;3.65;1.80;;;;;;;14.36;48.33;96666.75;5080687;28;20526;-26
2023/12/15 05:02:53;;;;;;;3.85;2.00;;;;;;;14.33;48.44;96672.34;5076009;28;20024;-26
2023/12/15 05:05:19;;;;;;;3.35;2.10;;;;;;;14.03;48.97;96674.56;5059718;28;20028;-26
2023/12/15 05:07:45;;;;;;;3.28;1.95;;;;;;;14.12;49.09;96679.31;5080180;28;20070;-26
2023/12/15 05:10:11;;;;;;;3.30;2.17;;;;;;;14.26;48.82;96667.13;5079683;28;20025;-26
2023/12/15 05:12:36;;;;;;;3.42;2.03;;;;;;;14.14;48.79;96659.78;5080553;28;20024;-26
2023/12/15 05:15:05;;;;;;;3.70;1.90;;;;;;;14.15;49.06;96662.06;5080512;28;20043;-26
2023/12/15 05:17:31;;;;;;;2.83;1.98;;;;;;;14.13;48.63;96674.63;5080220;28;20044;-26
2023/12/15 05:19:57;;;;;;;4.72;2.30;;;;;;;14.07;48.75;96687.31;5079769;28;20436;-26
2023/12/15 05:22:23;;;;;;;4.03;1.92;;;;;;;14.14;48.84;96676.91;5080172;28;20024;-26
2023/12/15 05:24:50;;;;;;;4.82;2.60;;;;;;;14.26;48.78;96673.34;5079586;28;20020;-26
2023/12/15 05:27:15;;;;;;;3.80;2.30;;;;;;;14.29;48.41;96690.81;5082357;28;20081;-26
2023/12/15 05:29:45;;;;;;;6.28;3.00;;;;;;;14.15;49.04;96674.94;5085281;28;20033;-26
2023/12/15 05:32:11;;;;;;;5.57;2.40;;;;;;;14.15;48.83;96672.97;5083869;28;20432;-26
2023/12/15 05:34:37;;;;;;;3.85;2.40;;;;;;;14.01;49.31;96690.59;5090611;28;20059;-26
2023/12/15 05:37:02;;;;;;;4.40;2.25;;;;;;;14.22;48.75;96693.78;5084154;28;20424;-26
2023/12/15 05:39:28;;;;;;;5.03;1.98;;;;;;;14.24;48.53;96697.59;5078900;28;20078;-26
2023/12/15 05:41:53;;;;;;;2.25;1.60;;;;;;;14.12;48.75;96698.41;5082508;28;20021;-26
2023/12/15 05:44:19;;;;;;;4.25;2.20;;;;;;;14.09;48.89;96696.59;5083626;28;20020;-26
2023/12/15 05:46:45;;;;;;;5.15;2.25;;;;;;;14.14;48.42;96698.72;5083497;28;20021;-26
2023/12/15 05:49:11;;;;;;;3.47;2.30;;;;;;;14.22;48.79;96705.44;5083438;28;20419;-26
2023/12/15 05:51:37;;;;;;;4.20;2.20;;;;;;;14.13;48.32;96708.09;5084093;28;20123;-26
2023/12/15 05:54:03;;;;;;;4.63;1.88;;;;;;;14.27;48.75;96712.31;5083454;28;20150;-26
2023/12/15 05:56:29;;;;;;;3.72;2.30;;;;;;;14.29;48.44;96720.81;5083910;28;20073;-26
2023/12/15 05:58:56;;;;;;;3.78;1.90;;;;;;;14.14;48.72;96717.06;5083172;28;20028;-26
2023/12/15 06:01:21;;;;;;;4.13;1.98;;;;;;;14.07;48.80;96720.03;5083092;28;20028;-26
2023/12/15 06:03:47;;;;;;;5.38;2.42;;;;;;;14.12;48.88;96719.47;5083406;28;20028;-26
2023/12/15 06:06:12;;;;;;;5.45;2.10;;;;;;;14.12;48.95;96724.91;5081191;28;20023;-26
2023/12/15 06:08:38;;;;;;;6.63;2.28;;;;;;;14.12;48.66;96724.91;5086506;28;20035;-26
2023/12/15 06:11:03;;;;;;;4.05;1.85;;;;;;;14.11;48.45;96731.56;5090543;28;20527;-26
2023/12/15 06:13:29;;;;;;;4.00;2.10;;;;;;;14.14;48.49;96741.59;5083107;28;20408;-26
2023/12/15 06:15:54;;;;;;;3.20;1.90;;;;;;;14.08;48.70;96743.38;5090237;28;20225;-26
2023/12/15 06:18:20;;;;;;;3.25;2.00;;;;;;;14.15;48.77;96743.88;5076323;28;20050;-26
2023/12/15 06:20:45;;;;;;;3.10;1.70;;;;;;;14.17;48.39;96746.94;5083270;28;20021;-26
2023/12/15 06:23:11;;;;;;;4.25;2.22;;;;;;;14.26;48.39;96768.06;5082976;28;20028;-26
2023/12/15 06:25:36;;;;;;;4.78;2.47;;;;;;;14.10;48.49;96768.22;5088124;28;20492;-26
2023/12/15 06:28:02;;;;;;;3.13;2.10;;;;;;;14.10;48.95;96765.50;5085226;28;20020;-26
2023/12/15 06:30:27;;;;;;;4.05;2.42;;;;;;;14.25;48.59;96777.47;5082883;28;20458;-26
2023/12/15 06:32:52;;;;;;;3.78;2.00;;;;;;;13.92;49.07;96794.13;5082172;28;20022;-25
2023/12/15 06:35:18;;;;;;;3.60;2.00;;;;;;;13.86;49.47;96806.78;5085601;28;20027;-26
2023/12/15 06:37:44;;;;;;;4.22;2.35;;;;;;;14.01;48.57;96796.94;5082227;28;20155;-26
2023/12/15 06:40:09;;;;;;;3.50;1.77;;;;;;;14.03;48.82;96808.19;5082867;28;20048;-26
2023/12/15 06:42:35;;;;;;;4.00;2.25;;;;;;;13.94;49.07;96799.91;5084327;28;20039;-26
2023/12/15 06:45:07;;;;;;;3.58;1.95;;;;;;;14.11;48.80;96800.50;5080386;28;20016;-26
2023/12/15 06:47:33;;;;;;;7.23;2.23;;;;;;;14.11;48.70;96794.28;5083322;28;20408;-26
2023/12/15 06:49:58;;;;;;;3.75;2.10;;;;;;;14.17;48.93;96806.19;5082541;28;20070;-27
2023/12/15 06:52:24;;;;;;;3.38;2.22;;;;;;;14.10;48.81;96801.72;5075703;28;20021;-26
2023/12/15 06:54:50;;;;;;;7.70;1.92;;;;;;;13.86;48.94;96808.75;5082431;28;20063;-26
2023/12/15 06:57:16;;;;;;;5.00;1.90;;;;;;;14.03;49.00;96808.19;5070509;28;20099;-26
2023/12/15 06:59:41;;;;;;;3.95;2.20;;;;;;;14.00;49.08;96819.19;5083012;28;20106;-27
2023/12/15 07:02:07;;;;;;;5.47;2.35;;;;;;;13.85;49.45;96818.88;5079717;28;20419;-26
2023/12/15 07:04:32;;;;;;;8.00;2.17;;;;;;;13.90;49.32;96823.78;5078343;28;20437;-26
2023/12/15 07:06:58;;;;;;;3.55;2.08;;;;;;;13.85;49.13;96832.50;5084380;28;20385;-26
2023/12/15 07:09:23;;;;;;;4.55;1.98;;;;;;;14.12;48.46;96826.59;5085289;28;20020;-26
2023/12/15 07:11:48;;;;;;;3.30;1.98;;;;;;;14.12;48.36;96832.03;5083826;28;20036;-26
2023/12/15 07:14:14;;;;;;;3.50;2.08;;;;;;;14.13;48.53;96839.03;5082205;28;20067;-26
2023/12/15 07:16:39;;;;;;;3.10;1.85;;;;;;;14.17;48.36;96849.81;5063059;28;20381;-25
2023/12/15 07:19:05;;;;;;;4.43;1.67;;;;;;;14.12;48.44;96847.66;5082850;28;20031;-26
2023/12/15 07:21:31;;;;;;;4.80;2.15;;;;;;;14.07;48.69;96843.53;5080137;28;20020;-26
2023/12/15 07:23:57;;;;;;;9.20;1.88;;;;;;;14.13;48.75;96846.44;5084102;28;20110;-26
2023/12/15 07:26:22;;;;;;;2.65;1.77;;;;;;;14.05;49.16;96856.06;5077265;28;20541;-26
2023/12/15 07:28:47;;;;;;;2.72;1.88;;;;;;;14.13;48.92;96860.84;5085057;28;20028;-26
2023/12/15 07:31:13;;;;;;;3.58;2.10;;;;;;;14.10;48.76;96871.88;5077002;28;20028;-25
2023/12/15 07:33:38;;;;;;;3.58;2.00;;;;;;;14.16;48.38;96881.81;5070399;28;20496;-26
2023/12/15 07:36:05;;;;;;;2.63;1.60;;;;;;;14.11;48.57;96884.31;5081802;28;20020;-26
2023/12/15 07:38:30;;;;;;;2.92;1.60;;;;;;;14.00;49.08;96887.38;5082488;28;20025;-26
2023/12/15 07:40:56;;;;;;;2.72;1.95;;;;;;;14.18;48.59;96884.84;5082036;28;20017;-27
2023/12/15 07:43:21;;;;;;;5.03;2.00;;;;;;;14.29;48.76;96890.72;5081653;28;20020;-26
2023/12/15 07:45:47;;;;;;;5.68;2.03;;;;;;;14.27;48.61;96893.13;5081875;28;20025;-26
2023/12/15 07:48:13;;;;;;;5.18;1.65;;;;;;;14.23;48.78;96894.44;5063726;28;20385;-26
2023/12/15 07:50:39;;;;;;;2.40;1.60;;;;;;;14.24;48.91;96893.22;5082868;28;20052;-26
2023/12/15 07:53:05;;;;;;;5.30;1.58;;;;;;;14.34;48.63;96909.25;5087021;28;20024;-26
2023/12/15 07:55:30;;;;;;;6.32;2.10;;;;;;;14.27;48.59;96903.28;5080861;28;20101;-26
2023/12/15 07:57:56;;;;;;;2.83;1.67;;;;;;;13.99;49.62;96904.94;5088692;28;20028;-26
2023/12/15 08:00:22;;;;;;;3.92;1.70;;;;;;;14.07;49.12;96910.94;5082005;28;20380;-26
2023/12/15 08:02:48;;;;;;;3.70;1.73;;;;;;;14.24;49.01;96912.31;5088720;28;20110;-26
2023/12/15 08:05:14;;;;;;;3.80;1.80;;;;;;;14.08;49.20;96907.03;5081205;28;20101;-27
2023/12/15 08:07:42;;;;;;;3.97;2.20;;;;;;;14.28;48.73;96921.94;5088478;28;20473;-26
2023/12/15 08:10:08;;;;;;;4.47;1.98;;;;;;;14.28;48.86;96921.94;5081366;28;20020;-26
2023/12/15 08:12:34;;;;;;;3.35;1.83;;;;;;;14.17;48.86;96916.06;5081148;28;20027;-26
2023/12/15 08:14:59;;;;;;;4.72;1.75;;;;;;;14.21;49.04;96899.59;5082692;28;20107;-26
2023/12/15 08:17:25;;;;;;;3.17;1.63;;;;;;;14.43;48.67;96911.38;5084626;28;20020;-26
2023/12/15 08:19:50;;;;;;;2.42;1.58;;;;;;;14.16;49.07;96898.16;5083530;28;20024;-26
2023/12/15 08:22:16;;;;;;;2.95;1.55;;;;;;;14.32;48.94;96906.22;5080672;28;20028;-26
2023/12/15 08:24:42;;;;;;;6.50;2.20;;;;;;;14.25;49.32;96906.44;5079460;28;20162;-26
2023/12/15 08:27:08;;;;;;;3.80;1.73;;;;;;;14.22;49.46;96906.53;5075756;28;20056;-26
2023/12/15 08:29:34;;;;;;;3.15;1.73;;;;;;;14.25;48.94;96900.22;5080900;28;20470;-26
2023/12/15 08:31:59;;;;;;;4.53;1.77;;;;;;;14.27;48.77;96897.81;5080672;28;20024;-26
2023/12/15 08:34:26;;;;;;;2.90;1.75;;;;;;;14.20;49.13;96909.72;5088219;28;20039;-26
2023/12/15 08:36:52;;;;;;;3.38;1.60;;;;;;;14.26;49.06;96909.94;5073389;28;20470;-26
2023/12/15 08:39:17;;;;;;;3.92;1.80;;;;;;;14.13;49.34;96914.63;5080693;28;20111;-26
2023/12/15 08:41:43;;;;;;;3.45;1.80;;;;;;;14.28;48.92;96921.94;5080668;28;20355;-26
2023/12/15 08:44:08;;;;;;;4.75;1.80;;;;;;;14.50;48.58;96924.75;5080751;28;20377;-26
2023/12/15 08:46:35;;;;;;;3.83;1.70;;;;;;;14.48;48.51;96940.81;5081214;28;20107;-26
2023/12/15 08:49:01;;;;;;;4.50;1.60;;;;;;;14.64;48.19;96932.50;5080605;28;20027;-26
2023/12/15 08:51:26;;;;;;;2.75;1.63;;;;;;;14.64;48.37;96935.22;5080122;28;20036;-26
2023/12/15 08:53:53;;;;;;;5.25;1.75;;;;;;;14.59;48.39;96935.75;5083712;28;20028;-26
2023/12/15 08:56:18;;;;;;;3.70;2.03;;;;;;;14.94;47.65;96938.53;5077264;28;20032;-26
2023/12/15 08:58:44;;;;;;;4.10;1.75;;;;;;;17.90;40.90;96942.75;5080723;28;20020;-26
2023/12/15 09:01:10;;;;;;;3.30;1.83;;;;;;;21.19;34.55;96959.00;5080227;28;20374;-26
2023/12/15 09:03:36;;;;;;;3.92;1.90;;;;;;;23.22;29.92;96958.84;5062013;28;20024;-26
2023/12/15 09:06:02;;;;;;;3.17;1.70;;;;;;;23.87;29.14;96965.06;5080032;28;20466;-25
2023/12/15 09:08:27;;;;;;;2.25;1.38;;;;;;;24.14;28.10;96973.88;5079905;28;20077;-27
2023/12/15 09:10:53;;;;;;;2.90;1.98;;;;;;;24.86;27.01;96975.81;5074094;28;20028;-26
2023/12/15 09:13:19;;;;;;;2.38;1.67;;;;;;;26.02;25.52;96988.44;5084113;28;20012;-27
2023/12/15 09:15:44;;;;;;;4.07;1.67;;;;;;;26.11;25.14;96990.13;5083645;28;20024;-27
2023/12/15 09:18:10;;;;;;;3.40;1.80;;;;;;;26.75;24.44;96996.94;5079877;28;20023;-26
2023/12/15 09:20:35;;;;;;;3.55;1.42;;;;;;;27.67;23.37;96971.84;5072784;28;20446;-26
2023/12/15 09:23:09;;;;;;;3.20;1.67;;;;;;;28.14;22.54;96974.94;5080677;28;20016;-26
2023/12/15 09:25:35;;;;;;;2.67;1.42;;;;;;;26.99;23.97;96987.09;5079092;28;20021;-26
2023/12/15 09:28:03;;;;;;;2.80;1.30;;;;;;;27.38;23.40;96987.41;5079603;28;20020;-26
2023/12/15 09:30:29;;;;;;;5.90;2.00;;;;;;;27.76;22.68;96979.06;5083676;28;20424;-28
2023/12/15 09:32:54;;;;;;;1.98;1.50;;;;;;;27.42;23.35;96975.97;5077006;28;20113;-27
2023/12/15 09:35:19;;;;;;;2.80;1.70;;;;;;;26.81;24.01;96980.19;5080400;28;20030;-26
2023/12/15 09:37:45;;;;;;;2.83;1.60;;;;;;;27.73;22.44;96991.25;5079644;28;20020;-26
2023/12/15 09:40:13;;;;;;;3.20;1.80;;;;;;;22.69;29.26;96990.00;5080451;28;20026;-27
2023/12/15 09:42:38;;;;;;;3.38;1.75;;;;;;;20.27;34.20;96990.56;5079773;28;20109;-26
2023/12/15 09:45:04;;;;;;;6.03;1.70;;;;;;;18.59;37.53;97005.03;5079577;28;20045;-26
2023/12/15 09:47:34;;;;;;;3.65;1.92;;;;;;;18.00;38.98;97001.88;5073530;28;20036;-26
2023/12/15 09:50:03;;;;;;;3.30;1.85;;;;;;;17.47;40.66;97013.19;5083354;28;20105;-27
2023/12/15 09:52:32;;;;;;;3.20;1.85;;;;;;;17.24;41.00;97011.06;5074886;28;20082;-26
2023/12/15 09:54:59;;;;;;;4.35;1.77;;;;;;;17.00;41.99;97007.38;5083047;28;20015;-27
2023/12/15 09:57:24;;;;;;;2.35;1.50;;;;;;;16.71;42.58;97010.50;5083433;28;20031;-26
2023/12/15 09:59:51;;;;;;;2.38;1.58;;;;;;;16.14;43.61;96994.31;5079709;28;20020;-26
2023/12/15 10:02:16;;;;;;;4.72;1.65;;;;;;;16.33;43.50;96997.88;5085324;28;20099;-26
2023/12/15 10:04:42;;;;;;;2.47;1.48;;;;;;;16.28;43.88;96986.78;5082287;28;20517;-26
2023/12/15 10:07:07;;;;;;;2.30;1.40;;;;;;;15.98;45.05;96985.56;5082982;28;20351;-26
2023/12/15 10:09:38;;;;;;;3.45;1.70;;;;;;;16.16;44.81;96996.63;5083357;28;20060;-27
2023/12/15 10:12:08;;;;;;;3.17;2.13;;;;;;;15.92;45.48;96990.09;5082699;28;20111;-26
2023/12/15 10:14:38;;;;;;;2.58;1.35;;;;;;;15.81;45.58;96993.25;5083123;28;20024;-26
2023/12/15 10:17:10;;;;;;;2.35;1.30;;;;;;;15.84;45.57;96997.78;5081621;28;20054;-27
2023/12/15 10:19:36;;;;;;;2.85;1.60;;;;;;;15.60;46.02;97002.19;5086901;28;20076;-26
2023/12/15 10:22:02;;;;;;;2.65;1.13;;;;;;;15.65;45.98;97018.03;5085275;28;20025;-26
2023/12/15 10:24:28;;;;;;;2.55;1.40;;;;;;;15.45;46.74;97013.59;5086587;28;20386;-26
2023/12/15 10:26:53;;;;;;;2.67;1.13;;;;;;;15.58;45.70;97008.09;5086061;28;20389;-26
2023/12/15 10:29:21;;;;;;;3.22;1.48;;;;;;;15.42;46.23;97006.31;5077628;28;20055;-26
2023/12/15 10:31:51;;;;;;;2.38;1.30;;;;;;;15.41;46.20;97007.53;5080996;28;20021;-26
2023/12/15 10:34:16;;;;;;;1.63;1.00;;;;;;;15.24;46.79;97010.84;5090795;28;20042;-26
2023/12/15 10:36:46;;;;;;;2.15;0.95;;;;;;;15.44;46.40;97014.06;5082539;28;20225;-26
2023/12/15 10:39:15;;;;;;;2.45;1.48;;;;;;;15.40;45.83;97013.44;5083068;28;20028;-26
2023/12/15 10:41:42;;;;;;;1.83;1.10;;;;;;;15.45;45.99;97021.81;5082719;28;20107;-26
2023/12/15 10:44:11;;;;;;;2.92;1.08;;;;;;;15.37;46.44;97019.78;5082361;28;20028;-26
2023/12/15 10:46:39;;;;;;;1.50;0.93;;;;;;;15.23;46.37;97010.09;5082487;28;20028;-26
2023/12/15 10:49:06;;;;;;;4.32;1.25;;;;;;;15.40;46.04;97007.97;5081612;28;20020;-26
2023/12/15 10:51:33;;;;;;;2.60;0.82;;;;;;;15.25;45.87;97015.13;5076628;28;20067;-26
2023/12/15 10:54:01;;;;;;;3.30;1.23;;;;;;;15.30;45.85;97009.88;5082509;28;20025;-26
2023/12/15 10:56:27;;;;;;;4.68;0.85;;;;;;;15.39;45.86;97023.59;5082047;28;20016;-26
2023/12/15 10:58:53;;;;;;;2.83;0.93;;;;;;;15.26;46.70;97020.16;5085048;28;20023;-26
2023/12/15 11:01:22;;;;;;;2.70;1.10;;;;;;;15.38;46.19;97022.06;5079986;28;20019;-26
2023/12/15 11:03:48;;;;;;;1.45;1.00;;;;;;;15.28;45.69;97023.19;5082612;28;20058;-26
2023/12/15 11:06:24;;;;;;;4.25;0.82;;;;;;;15.23;45.48;97026.47;5079474;28;20427;-26
2023/12/15 11:08:49;;;;;;;1.38;1.15;;;;;;;15.36;45.41;97029.94;5084401;28;20029;-26
2023/12/15 11:11:22;;;;;;;2.10;0.90;;;;;;;15.38;45.18;97030.25;5081831;28;20028;-26
2023/12/15 11:13:47;;;;;;;2.10;1.17;;;;;;;15.22;45.68;97029.66;5081917;28;20024;-27
2023/12/15 11:16:13;;;;;;;1.83;0.90;;;;;;;15.13;45.75;97049.47;5060042;28;20020;-26
2023/12/15 11:18:40;;;;;;;2.92;1.00;;;;;;;15.13;46.13;97035.03;5061171;28;20095;-26
2023/12/15 11:21:09;;;;;;;2.17;0.90;;;;;;;15.30;45.77;97031.72;5083161;28;20107;-25
2023/12/15 11:23:48;;;;;;;2.97;1.15;;;;;;;15.49;45.18;97048.25;5085374;28;20477;-26
2023/12/15 11:26:22;;;;;;;2.92;0.90;;;;;;;15.34;46.02;97048.75;5076703;28;20043;-26
2023/12/15 11:28:48;;;;;;;;;;;;;;;15.10;45.99;97039.41;5086329;28;20024;-26